Impacts TAF Board INFO
FOR SITUATIONAL AWARENESS. NOT TO BE USED FOR FLIGHT PLANNING PURPOSES.
IDs:

KMCO - Orlando Intl, FL, US

Issued at 1500 UTC 26 Apr 2018
Updated at 1659 UTC 26 Apr 2018
Potential Impact None Slight Moderate High
Time1653Z 26/17Z 26/18Z 26/19Z 26/20Z 26/21Z 26/22Z 26/23Z 27/00Z 27/01Z 27/02Z 27/03Z 27/04Z 27/05Z>>
Type OBS PRVL PRVL PRVL PRVL PRVL PRVL PRVL PRVL PRVL PRVL PRVL PRVL PRVL
VIS 10 >6 >6 >6 >6 >6 >6 >6 >6 >6 >6 >6 >6 >6
CIG -- -- -- 250 250 250 250 250 -- -- -- -- -- --
Cover SCT SCT SCT BKN BKN BKN BKN BKN SCT SCT SCT SCT SCT SCT
FltCat VFR VFR VFR VFR VFR VFR VFR VFR VFR VFR VFR VFR VFR VFR
WX -- -- -- -- -- -- -- -- -- -- -- -- -- --
WDir VRB 240 240 240 240 240 240 240 250 250 250 250 250 250
WSpd 4 6 6 8 8 8 8 8 6 6 6 6 6 6
WGst -- -- -- -- -- -- -- -- -- -- -- -- -- --

Raw TAF
KMCO 261500Z 2615/2718 24006KT P6SM SCT030
  FM261900 24008KT P6SM SCT045 BKN250
  FM270000 25006KT P6SM SCT250


Raw METAR
KMCO 261653Z VRB04KT 10SM SCT042 SCT250 26/14 A2993 RMK AO2 SLP133 T02610144
KMCO 261553Z 26007KT 10SM SCT037 24/14 A2994 RMK AO2 SLP136 T02390139
KMCO 261453Z VRB04KT 10SM SCT028 23/15 A2994 RMK AO2 SLP138 T02330150 50005
KMCO 261353Z 24008KT 10SM SCT019 22/17 A2995 RMK AO2 SLP139 T02170167

METAR Board
Radar Display
Forecast Discussion

FOR SITUATIONAL AWARENESS. NOT TO BE USED FOR FLIGHT PLANNING PURPOSES.